Wind From: 13-12-2017 10:08 Until: 14-12-2017 06:00 warning for: Wind Level: Yellow info button

Although rather usual in this region, locally or potentially dangerous phenomena are expected. (such as local winds, summer thunderstorms, rising streams or high waves) Be aware and pay attention to the latest weather updates, especially if you carry out activities exposed to weather or close to a stream or shoreline. 


Meteo18 Weather Cam more information Meteo18 Weather Cam


Thunder radar more information blitzortung!


Rain radar more information rain snow radar


Visit our other weather sites:

Template documentation
and downloads

And another site



Weather Underground History page Text

Daily Summary for March 11, 2017 Units:  English    Metric   Both
« Previous Day
Next Day »
Daily Weekly Monthly Yearly Custom
  High: Low: Average:
Temperature: 68.5 °F 38.8 °F 52 °F
Dew Point: 46 °F 35.6 °F 40.1 °F
Humidity: 91 % 33 % 67 %
Wind Speed: 6 mph 0 mph 1.2 mph
Wind Gust: 9 mph - -
Wind:- - SSW
Pressure: 30.2 in 30 in -
Precipitation: 0 in    
Historical Graphs
 
 
Tabular Data for March 11, 2017
Time Temperature Dew Point Pressure Wind Wind Speed Wind Gust Humidity Rainfall Rate (Hourly)
00:02 47.8 °F 42.3 °F 30.2 in Calm   1 mph 81 % 0 in
00:12 46.6 °F 42.1 °F 30.2 in Calm     84 % 0 in
00:17 46.8 °F 42.3 °F 30.2 in Calm     84 % 0 in
00:22 46.9 °F 42.4 °F 30.2 in Calm     84 % 0 in
00:27 47.5 °F 42.3 °F 30.2 in Calm   1 mph 82 % 0 in
00:32 47.7 °F 42.4 °F 30.2 in NE 1 mph 1 mph 82 % 0 in
00:37 47.5 °F 42.3 °F 30.2 in NE 2 mph 2 mph 82 % 0 in
00:42 47.3 °F 42.1 °F 30.2 in Calm   2 mph 82 % 0 in
00:47 47.1 °F 41.9 °F 30.2 in Calm   2 mph 82 % 0 in
00:52 46.9 °F 41.7 °F 30.2 in Calm   2 mph 82 % 0 in
00:57 46.8 °F 41.9 °F 30.2 in Calm   1 mph 83 % 0 in
01:02 46.2 °F 41.4 °F 30.2 in Calm   1 mph 83 % 0 in
01:12 45.3 °F 41 °F 30.2 in NNW 1 mph   85 % 0 in
01:17 45.1 °F 41.2 °F 30.2 in Calm   1 mph 86 % 0 in
01:22 45.1 °F 41.2 °F 30.2 in Calm   1 mph 86 % 0 in
01:27 45 °F 41 °F 30.2 in NNW 1 mph 1 mph 86 % 0 in
01:32 45 °F 40.6 °F 30.2 in NNW 1 mph 2 mph 85 % 0 in
01:37 45 °F 40.5 °F 30.2 in NNW 1 mph 2 mph 84 % 0 in
01:42 44.4 °F 40.3 °F 30.2 in NW 1 mph 2 mph 85 % 0 in
01:47 44.1 °F 40.1 °F 30.2 in NW 1 mph 1 mph 86 % 0 in
01:52 43.3 °F 40.3 °F 30.2 in NW 1 mph 2 mph 89 % 0 in
01:57 43 °F 39.9 °F 30.2 in Calm   2 mph 89 % 0 in
02:02 42.6 °F 39.9 °F 30.2 in NW 1 mph 2 mph 90 % 0 in
02:07 42.6 °F 39.9 °F 30.2 in Calm   1 mph 90 % 0 in
02:12 43 °F 39.9 °F 30.2 in Calm   1 mph 89 % 0 in
02:17 43.2 °F 39.9 °F 30.2 in Calm   1 mph 88 % 0 in
02:22 43 °F 39.4 °F 30.2 in NW 1 mph 2 mph 87 % 0 in
02:32 42.8 °F 39.2 °F 30.2 in WNW 1 mph 2 mph 87 % 0 in
02:37 42.1 °F 38.8 °F 30.2 in WNW 1 mph 2 mph 88 % 0 in
02:42 41.5 °F 38.5 °F 30.2 in WNW 1 mph 2 mph 89 % 0 in
02:47 41.5 °F 38.8 °F 30.2 in WNW 1 mph 2 mph 90 % 0 in
02:52 41.5 °F 38.8 °F 30.2 in Calm   1 mph 90 % 0 in
02:57 42.1 °F 39.4 °F 30.2 in North 1 mph 1 mph 90 % 0 in
03:02 42.3 °F 39 °F 30.2 in NNE 1 mph 1 mph 88 % 0 in
03:12 42.6 °F 39 °F 30.2 in North 1 mph 2 mph 87 % 0 in
03:17 43.2 °F 38.7 °F 30.2 in NNE 1 mph 2 mph 84 % 0 in
03:22 43 °F 38.5 °F 30.2 in Calm   2 mph 84 % 0 in
03:32 42.8 °F 38.3 °F 30.2 in North 1 mph 2 mph 84 % 0 in
03:37 42.3 °F 38.1 °F 30.2 in Calm   1 mph 85 % 0 in
03:42 42.1 °F 37.9 °F 30.2 in North 1 mph 1 mph 85 % 0 in
03:47 41.7 °F 37.8 °F 30.2 in NNE 2 mph 2 mph 86 % 0 in
03:52 41.5 °F 37.6 °F 30.2 in NNE 1 mph 2 mph 86 % 0 in
03:57 41.5 °F 37.9 °F 30.2 in NNE 1 mph 2 mph 87 % 0 in
04:02 41.5 °F 37.9 °F 30.2 in Calm   2 mph 87 % 0 in
04:07 41.2 °F 37.6 °F 30.2 in NNE 1 mph 2 mph 87 % 0 in
04:12 41.4 °F 38.3 °F 30.2 in NE 1 mph 2 mph 89 % 0 in
04:17 41.4 °F 38.1 °F 30.2 in Calm   3 mph 88 % 0 in
04:22 41.2 °F 38.1 °F 30.2 in Calm   3 mph 89 % 0 in
04:27 40.8 °F 37.6 °F 30.2 in Calm   2 mph 88 % 0 in
04:32 40.6 °F 37.4 °F 30.2 in NNE 1 mph 3 mph 88 % 0 in
04:37 40.6 °F 37.6 °F 30.2 in North 1 mph 3 mph 89 % 0 in
04:42 40.5 °F 37.2 °F 30.2 in Calm   3 mph 88 % 0 in
04:47 39.9 °F 36.9 °F 30.2 in Calm   2 mph 89 % 0 in
04:52 39.9 °F 36.9 °F 30.2 in NW 2 mph 2 mph 89 % 0 in
05:02 39 °F 36.1 °F 30.2 in WNW 1 mph 2 mph 89 % 0 in
05:12 40.1 °F 37.4 °F 30.2 in Calm   2 mph 90 % 0 in
05:17 40.1 °F 36.9 °F 30.2 in Calm   1 mph 88 % 0 in
05:22 39.4 °F 36.5 °F 30.2 in Calm   1 mph 89 % 0 in
05:32 39.2 °F 36.5 °F 30.1 in Calm   1 mph 90 % 0 in
05:37 39.4 °F 37 °F 30.1 in Calm   1 mph 91 % 0 in
05:42 39.7 °F 37 °F 30.1 in WNW 1 mph 1 mph 90 % 0 in
05:47 39.6 °F 36.9 °F 30.1 in Calm   2 mph 90 % 0 in
05:52 39.6 °F 36.9 °F 30.1 in North 1 mph 2 mph 90 % 0 in
05:57 39.6 °F 36.5 °F 30.1 in North 3 mph 3 mph 89 % 0 in
06:02 39 °F 36.1 °F 30.1 in North 3 mph 3 mph 89 % 0 in
06:12 39.4 °F 36.5 °F 30.1 in NNW 3 mph 4 mph 89 % 0 in
06:17 39.6 °F 36.3 °F 30.1 in Calm   4 mph 88 % 0 in
06:22 39.4 °F 35.8 °F 30.1 in NNW 1 mph 3 mph 87 % 0 in
06:32 39.7 °F 36.5 °F 30.1 in North 1 mph 3 mph 88 % 0 in
06:42 39.9 °F 36.1 °F 30.1 in NNW 1 mph 2 mph 86 % 0 in
06:47 39.4 °F 35.8 °F 30.1 in Calm   2 mph 87 % 0 in
06:52 38.8 °F 35.6 °F 30.1 in NW 1 mph 2 mph 88 % 0 in
06:57 39 °F 36.1 °F 30.1 in Calm   1 mph 89 % 0 in
07:02 39 °F 35.8 °F 30.1 in Calm   1 mph 88 % 0 in
07:07 39.2 °F 36 °F 30.1 in Calm   1 mph 88 % 0 in
07:12 39.4 °F 35.8 °F 30.1 in Calm   1 mph 87 % 0 in
07:17 39.7 °F 36.1 °F 30.1 in Calm     87 % 0 in
07:22 39.9 °F 36.1 °F 30.1 in Calm     86 % 0 in
07:27 40.5 °F 36.3 °F 30.1 in Calm     85 % 0 in
07:32 40.8 °F 36.1 °F 30.1 in Calm     83 % 0 in
07:37 41 °F 36.3 °F 30.1 in Calm     83 % 0 in
07:42 41 °F 36 °F 30.1 in Calm     82 % 0 in
07:47 41.4 °F 36.3 °F 30.1 in Calm     82 % 0 in
07:52 41.7 °F 36 °F 30.1 in Calm     80 % 0 in
07:57 42.3 °F 36.5 °F 30.1 in Calm     80 % 0 in
08:02 42.4 °F 36.3 °F 30.1 in Calm     79 % 0 in
08:07 42.4 °F 36.3 °F 30.1 in Calm     79 % 0 in
08:12 42.6 °F 36.3 °F 30.1 in Calm     78 % 0 in
08:17 42.3 °F 36 °F 30.1 in Calm     78 % 0 in
08:22 42.4 °F 36.3 °F 30.1 in Calm     79 % 0 in
08:27 42.6 °F 36.3 °F 30.1 in Calm     78 % 0 in
08:32 42.4 °F 36.3 °F 30.1 in Calm     79 % 0 in
08:37 42.6 °F 36.9 °F 30.1 in Calm     80 % 0 in
08:42 43.3 °F 37.6 °F 30.1 in Calm     80 % 0 in
08:52 44.4 °F 37.9 °F 30.1 in Calm     78 % 0 in
09:02 45.1 °F 37.8 °F 30.1 in NE 1 mph   75 % 0 in
09:12 45.9 °F 38.3 °F 30.1 in Calm   3 mph 75 % 0 in
09:17 46.2 °F 38.7 °F 30.1 in Calm   2 mph 75 % 0 in
09:22 46.9 °F 39 °F 30.1 in Calm   2 mph 74 % 0 in
09:32 47.7 °F 39.7 °F 30.1 in Calm   2 mph 74 % 0 in
09:37 48 °F 39.7 °F 30.1 in ESE 2 mph 3 mph 73 % 0 in
09:42 48.6 °F 40.6 °F 30.1 in Calm   3 mph 74 % 0 in
09:47 49.3 °F 40.6 °F 30.1 in SE 2 mph 5 mph 72 % 0 in
09:52 49.3 °F 41 °F 30.1 in SSE 1 mph 5 mph 73 % 0 in
09:57 49.3 °F 40.3 °F 30.1 in SE 1 mph 6 mph 71 % 0 in
10:02 49.5 °F 40.8 °F 30.1 in SE 2 mph 6 mph 72 % 0 in
10:07 49.5 °F 40.1 °F 30.1 in ESE 1 mph 5 mph 70 % 0 in
10:12 49.8 °F 41.2 °F 30.1 in Calm   5 mph 72 % 0 in
10:17 50.2 °F 41.5 °F 30.1 in SSE 3 mph 3 mph 72 % 0 in
10:22 50.2 °F 41.9 °F 30.1 in East 2 mph 3 mph 73 % 0 in
10:27 50.4 °F 41.7 °F 30.1 in SE 3 mph 6 mph 72 % 0 in
10:32 50.7 °F 42.1 °F 30.1 in Calm   6 mph 72 % 0 in
10:37 51.3 °F 43 °F 30.1 in SE 2 mph 5 mph 73 % 0 in
10:42 51.4 °F 42.8 °F 30.1 in ESE 1 mph 5 mph 72 % 0 in
10:52 53.1 °F 43.5 °F 30.1 in East 3 mph 5 mph 70 % 0 in
10:57 53.2 °F 44.1 °F 30.1 in SE 1 mph 5 mph 71 % 0 in
11:02 53.8 °F 43.9 °F 30.1 in ESE 2 mph 6 mph 69 % 0 in
11:07 54.1 °F 43.9 °F 30.1 in SE 2 mph 6 mph 68 % 0 in
11:12 54.7 °F 43.5 °F 30.1 in SE 2 mph 6 mph 66 % 0 in
11:17 54.7 °F 43.5 °F 30.1 in East 2 mph 5 mph 66 % 0 in
11:22 55 °F 43.5 °F 30.1 in ESE 3 mph 4 mph 65 % 0 in
11:27 55.4 °F 44.6 °F 30.1 in SE 3 mph 6 mph 67 % 0 in
11:32 55.9 °F 44.8 °F 30.1 in East 2 mph 7 mph 66 % 0 in
11:37 56.1 °F 44.1 °F 30.1 in SE 3 mph 7 mph 64 % 0 in
11:42 56.8 °F 45.7 °F 30.1 in SE 3 mph 7 mph 66 % 0 in
11:47 57.4 °F 45.3 °F 30.1 in ESE 4 mph 6 mph 64 % 0 in
11:52 57.6 °F 45.1 °F 30.1 in ESE 2 mph 6 mph 63 % 0 in
12:02 57.9 °F 44.6 °F 30.1 in SE 4 mph 8 mph 61 % 0 in
12:07 58.3 °F 44.4 °F 30.1 in SE 5 mph 8 mph 60 % 0 in
12:12 58.3 °F 45 °F 30.1 in SE 2 mph 8 mph 61 % 0 in
12:17 58.5 °F 45.1 °F 30.1 in ENE 4 mph 7 mph 61 % 0 in
12:22 58.8 °F 44.6 °F 30.1 in ENE 5 mph 7 mph 59 % 0 in
12:32 59.2 °F 45.7 °F 30.1 in SE 4 mph 8 mph 61 % 0 in
12:37 59.5 °F 45.1 °F 30.1 in SE 2 mph 7 mph 59 % 0 in
12:42 59.9 °F 44.6 °F 30.1 in SE 3 mph 7 mph 57 % 0 in
12:52 60.3 °F 44.4 °F 30.1 in ENE 3 mph 6 mph 56 % 0 in
12:57 60.6 °F 45.3 °F 30.1 in East 1 mph 6 mph 57 % 0 in
13:02 61.2 °F 44.8 °F 30.1 in ESE 3 mph 7 mph 55 % 0 in
13:12 61.2 °F 44.4 °F 30.1 in East 6 mph 7 mph 54 % 0 in
13:17 61.2 °F 42.4 °F 30.1 in SE 3 mph 7 mph 50 % 0 in
13:22 61.9 °F 46 °F 30.1 in East 2 mph 7 mph 56 % 0 in
13:27 61.9 °F 44.1 °F 30.1 in ESE 4 mph 6 mph 52 % 0 in
13:32 62.1 °F 44.2 °F 30.1 in SE 3 mph 9 mph 52 % 0 in
13:42 62.4 °F 43.5 °F 30.1 in SSE 2 mph 8 mph 50 % 0 in
13:47 62.4 °F 42.4 °F 30.1 in East 2 mph 7 mph 48 % 0 in
13:52 62.2 °F 42.8 °F 30.1 in SSE 1 mph 7 mph 49 % 0 in
13:57 62.6 °F 44.2 °F 30.1 in ESE 3 mph 6 mph 51 % 0 in
14:02 62.8 °F 44.4 °F 30.1 in ESE 3 mph 7 mph 51 % 0 in
14:12 63 °F 41.9 °F 30 in SE 5 mph 7 mph 46 % 0 in
14:17 63.1 °F 42.1 °F 30 in SE 3 mph 6 mph 46 % 0 in
14:22 63.1 °F 40.3 °F 30 in SE 4 mph 6 mph 43 % 0 in
14:27 63.3 °F 39.9 °F 30 in ESE 4 mph 7 mph 42 % 0 in
14:32 63.1 °F 40.8 °F 30 in ESE 1 mph 7 mph 44 % 0 in
14:42 63.9 °F 43.2 °F 30 in ENE 2 mph 6 mph 47 % 0 in
14:47 63.9 °F 42.1 °F 30 in SE 5 mph 6 mph 45 % 0 in
14:52 64.2 °F 41.9 °F 30 in SE 2 mph 6 mph 44 % 0 in
14:57 64.2 °F 40.1 °F 30 in SSE 2 mph 6 mph 41 % 0 in
15:02 64.8 °F 43 °F 30 in SE 2 mph 6 mph 45 % 0 in
15:07 65.1 °F 43.3 °F 30 in South 2 mph 6 mph 45 % 0 in
15:12 64.9 °F 39.4 °F 30 in SE 3 mph 6 mph 39 % 0 in
15:17 64.9 °F 41.4 °F 30 in ESE 3 mph 5 mph 42 % 0 in
15:22 65.5 °F 40.5 °F 30 in SSE 1 mph 5 mph 40 % 0 in
15:32 65.7 °F 40.6 °F 30 in East 2 mph 4 mph 40 % 0 in
15:37 65.7 °F 37.9 °F 30 in Calm   4 mph 36 % 0 in
15:42 66 °F 39 °F 30 in ESE 1 mph 4 mph 37 % 0 in
15:47 66.4 °F 39.4 °F 30 in East 3 mph 3 mph 37 % 0 in
15:52 66.4 °F 41.4 °F 30 in Calm   4 mph 40 % 0 in
15:57 66.4 °F 38.7 °F 30 in East 2 mph 5 mph 36 % 0 in
16:02 66.6 °F 39.6 °F 30 in ENE 3 mph 5 mph 37 % 0 in
16:07 66.7 °F 39.6 °F 30 in East 1 mph 5 mph 37 % 0 in
16:12 66.7 °F 39 °F 30 in ESE 1 mph 4 mph 36 % 0 in
16:17 66.7 °F 37.4 °F 30 in East 3 mph 4 mph 34 % 0 in
16:22 66.9 °F 36.9 °F 30 in SE 2 mph 4 mph 33 % 0 in
16:27 66.7 °F 36.7 °F 30 in Calm   4 mph 33 % 0 in
16:37 66.7 °F 37.4 °F 30 in SE 1 mph 5 mph 34 % 0 in
16:42 66.7 °F 39 °F 30 in SE 3 mph 5 mph 36 % 0 in
16:47 66.6 °F 39.6 °F 30 in Calm   4 mph 37 % 0 in
16:52 66.9 °F 39 °F 30 in Calm   4 mph 36 % 0 in
16:57 67.3 °F 38.7 °F 30 in Calm   4 mph 35 % 0 in
17:02 67.5 °F 38.8 °F 30 in SSE 1 mph 1 mph 35 % 0 in
17:12 68.5 °F 41.2 °F 30 in Calm   2 mph 37 % 0 in
17:17 68.4 °F 41 °F 30 in Calm   2 mph 37 % 0 in
17:22 67.6 °F 40.5 °F 30 in Calm   1 mph 37 % 0 in
17:27 67.5 °F 39.6 °F 30 in Calm     36 % 0 in
17:32 67.3 °F 39.4 °F 30 in Calm     36 % 0 in
17:42 66.6 °F 40.1 °F 30 in Calm     38 % 0 in
17:47 66.6 °F 40.1 °F 30 in Calm     38 % 0 in
17:52 66.6 °F 40.8 °F 30 in Calm     39 % 0 in
18:02 65.3 °F 39.7 °F 30 in Calm     39 % 0 in
18:12 63.5 °F 39.9 °F 30 in Calm   1 mph 42 % 0 in
18:17 62.8 °F 39.9 °F 30 in West 1 mph 1 mph 43 % 0 in
18:22 62.8 °F 39.4 °F 30 in West 1 mph 1 mph 42 % 0 in
18:27 62.4 °F 39.6 °F 30 in West 1 mph 1 mph 43 % 0 in
18:32 61.3 °F 41.5 °F 30 in WNW 1 mph 1 mph 48 % 0 in
18:42 60.3 °F 42.1 °F 30 in WNW 1 mph 2 mph 51 % 0 in
18:47 60.1 °F 43 °F 30 in WNW 1 mph 2 mph 53 % 0 in
18:52 59.7 °F 41 °F 30 in WNW 1 mph 2 mph 50 % 0 in
18:57 60.1 °F 39.2 °F 30 in WNW 1 mph 2 mph 46 % 0 in
19:02 60.3 °F 38.8 °F 30 in NW 1 mph 2 mph 45 % 0 in
19:12 59.4 °F 39.7 °F 30 in NNW 1 mph 3 mph 48 % 0 in
19:22 58.8 °F 40.3 °F 30 in NNW 1 mph 3 mph 50 % 0 in
19:27 58.6 °F 40.6 °F 30 in NNW 1 mph 2 mph 51 % 0 in
19:32 58.5 °F 40.5 °F 30 in Calm   2 mph 51 % 0 in
19:37 58.3 °F 40.8 °F 30 in WNW 1 mph 2 mph 52 % 0 in
19:42 57.6 °F 40.6 °F 30 in WNW 1 mph 2 mph 53 % 0 in
19:47 57.4 °F 39.9 °F 30 in NW 1 mph 1 mph 52 % 0 in
19:52 57.4 °F 41.4 °F 30 in NNW 1 mph 2 mph 55 % 0 in
19:57 57 °F 41 °F 30 in Calm   3 mph 55 % 0 in
20:02 56.3 °F 40.3 °F 30 in NW 1 mph 3 mph 55 % 0 in
20:07 56.7 °F 40.3 °F 30 in NW 1 mph 2 mph 54 % 0 in
20:12 56.5 °F 41.4 °F 30 in WNW 2 mph 2 mph 57 % 0 in
20:17 55.2 °F 41.5 °F 30 in WNW 2 mph 2 mph 60 % 0 in
20:22 55 °F 41.9 °F 30 in WNW 1 mph 2 mph 61 % 0 in
20:27 54.7 °F 41.9 °F 30 in WNW 1 mph 2 mph 62 % 0 in
20:32 54 °F 41.7 °F 30 in WNW 1 mph 2 mph 63 % 0 in
20:37 53.2 °F 42.3 °F 30 in WNW 1 mph 2 mph 66 % 0 in
20:42 53.1 °F 42.1 °F 30 in West 1 mph 2 mph 66 % 0 in
20:47 53.1 °F 41.2 °F 30 in WNW 2 mph 2 mph 64 % 0 in
20:52 53.8 °F 39.7 °F 30 in WNW 1 mph 2 mph 59 % 0 in
20:57 54.1 °F 40.1 °F 30 in Calm   2 mph 59 % 0 in
21:02 54.9 °F 39.9 °F 30 in Calm   2 mph 57 % 0 in
21:07 55.2 °F 39.7 °F 30 in NW 1 mph 2 mph 56 % 0 in
21:12 55.6 °F 40.1 °F 30 in NNW 2 mph 2 mph 56 % 0 in
21:17 55.8 °F 40.3 °F 30 in NNW 1 mph 3 mph 56 % 0 in
21:27 55.6 °F 40.1 °F 30 in NW 1 mph 3 mph 56 % 0 in
21:32 55.2 °F 40.6 °F 30 in North 1 mph 2 mph 58 % 0 in
21:42 54.7 °F 40.3 °F 30 in Calm   2 mph 58 % 0 in
21:47 54.3 °F 40.3 °F 30 in NNW 2 mph 2 mph 59 % 0 in
21:57 54.5 °F 40.1 °F 30 in NNW 1 mph 2 mph 58 % 0 in
22:02 54.1 °F 39.7 °F 30 in NNW 2 mph 2 mph 58 % 0 in
22:12 54.1 °F 39.2 °F 30 in North 1 mph 2 mph 57 % 0 in
22:17 54.1 °F 38.8 °F 30 in North 1 mph 2 mph 56 % 0 in
22:22 54.1 °F 39.2 °F 30 in Calm   2 mph 57 % 0 in
22:32 53.6 °F 39.2 °F 30 in NW 1 mph 2 mph 58 % 0 in
22:37 52.5 °F 39 °F 30 in WNW 2 mph 2 mph 60 % 0 in
22:42 52.3 °F 38.5 °F 30 in WNW 1 mph 2 mph 59 % 0 in
22:47 52.9 °F 38.1 °F 30 in WNW 1 mph 2 mph 57 % 0 in
22:52 52.3 °F 40.1 °F 30 in WNW 1 mph 2 mph 63 % 0 in
22:57 51.6 °F 39.9 °F 30 in WNW 1 mph 1 mph 64 % 0 in
23:02 51.6 °F 40.3 °F 30 in WNW 1 mph 2 mph 65 % 0 in
23:07 51.4 °F 40.1 °F 30 in Calm   2 mph 65 % 0 in
23:17 52 °F 39.7 °F 30 in WNW 1 mph 2 mph 63 % 0 in
23:22 51.1 °F 40.5 °F 30 in Calm   1 mph 67 % 0 in
23:32 50.4 °F 39.4 °F 30 in WNW 2 mph 2 mph 66 % 0 in
23:37 50.2 °F 39.6 °F 30 in WNW 2 mph 2 mph 67 % 0 in
23:42 50.4 °F 39.7 °F 30 in West 2 mph 2 mph 67 % 0 in
23:47 50.5 °F 40.5 °F 30 in WNW 1 mph 2 mph 68 % 0 in
23:52 50.5 °F 40.5 °F 30 in WNW 2 mph 2 mph 68 % 0 in
23:57 50.2 °F 39.6 °F 30 in North 2 mph 2 mph 67 % 0 in
Meteo18
Compliments of Weather Underground - 4 mb

Script developed by  Jim McMurry - jmcmurry@mwt.net Adapted for the template by  Wim van der Kuil - Leuven-Template.eu

You find our weather info also at:

European Weather Network

Weather Underground

Equipment we use:

Weather-station
Davis Vue

Weather-program
Meteohub

Weather-server
Raspberry PI 2 B+

Provider
1 and 1

Davis Vue

Meteohub

Raspberry PI 2 B+

1 and 1